sensor_id;sensor_type;location;lat;lon;timestamp;temperature;humidity
80230;DHT22;69540;42.136;24.742;2023-06-26T00:00:19;29.10;39.70
80230;DHT22;69540;42.136;24.742;2023-06-26T00:02:45;29.10;39.70
80230;DHT22;69540;42.136;24.742;2023-06-26T00:05:11;29.10;39.70
80230;DHT22;69540;42.136;24.742;2023-06-26T00:07:37;29.10;39.70
80230;DHT22;69540;42.136;24.742;2023-06-26T00:10:03;29.10;39.70
80230;DHT22;69540;42.136;24.742;2023-06-26T00:12:30;29.10;39.70
80230;DHT22;69540;42.136;24.742;2023-06-26T00:14:56;29.20;39.70
80230;DHT22;69540;42.136;24.742;2023-06-26T00:17:22;29.10;39.70
80230;DHT22;69540;42.136;24.742;2023-06-26T00:19:48;29.20;39.70
80230;DHT22;69540;42.136;24.742;2023-06-26T00:22:13;29.10;39.70
80230;DHT22;69540;42.136;24.742;2023-06-26T00:24:39;29.10;39.70
80230;DHT22;69540;42.136;24.742;2023-06-26T00:27:05;29.10;39.70
80230;DHT22;69540;42.136;24.742;2023-06-26T00:29:31;29.10;39.70
80230;DHT22;69540;42.136;24.742;2023-06-26T00:31:56;29.10;39.70
80230;DHT22;69540;42.136;24.742;2023-06-26T00:34:22;29.10;39.60
80230;DHT22;69540;42.136;24.742;2023-06-26T00:36:48;29.10;39.70
80230;DHT22;69540;42.136;24.742;2023-06-26T00:39:13;29.10;39.60
80230;DHT22;69540;42.136;24.742;2023-06-26T00:41:39;29.10;39.70
80230;DHT22;69540;42.136;24.742;2023-06-26T00:44:05;29.10;39.70
80230;DHT22;69540;42.136;24.742;2023-06-26T00:46:32;29.10;39.70
80230;DHT22;69540;42.136;24.742;2023-06-26T00:49:02;29.10;39.70
80230;DHT22;69540;42.136;24.742;2023-06-26T00:51:29;29.10;39.70
80230;DHT22;69540;42.136;24.742;2023-06-26T00:53:55;29.10;40.80
80230;DHT22;69540;42.136;24.742;2023-06-26T00:56:22;29.10;39.70
80230;DHT22;69540;42.136;24.742;2023-06-26T00:58:48;29.10;40.80
80230;DHT22;69540;42.136;24.742;2023-06-26T01:01:13;29.20;39.70
80230;DHT22;69540;42.136;24.742;2023-06-26T01:03:50;29.10;39.60
80230;DHT22;69540;42.136;24.742;2023-06-26T01:06:20;29.10;39.70
80230;DHT22;69540;42.136;24.742;2023-06-26T01:08:47;29.10;39.60
80230;DHT22;69540;42.136;24.742;2023-06-26T01:11:13;29.10;39.60
80230;DHT22;69540;42.136;24.742;2023-06-26T01:13:41;29.10;39.60
80230;DHT22;69540;42.136;24.742;2023-06-26T01:16:09;29.10;39.70
80230;DHT22;69540;42.136;24.742;2023-06-26T01:18:36;29.10;39.60
80230;DHT22;69540;42.136;24.742;2023-06-26T01:21:02;29.10;39.60
80230;DHT22;69540;42.136;24.742;2023-06-26T01:26:30;29.10;39.60
80230;DHT22;69540;42.136;24.742;2023-06-26T01:29:02;29.10;39.70
80230;DHT22;69540;42.136;24.742;2023-06-26T01:31:29;29.10;39.70
80230;DHT22;69540;42.136;24.742;2023-06-26T01:33:59;29.10;39.70
80230;DHT22;69540;42.136;24.742;2023-06-26T01:36:26;29.10;39.80
80230;DHT22;69540;42.136;24.742;2023-06-26T01:38:52;29.10;39.70
80230;DHT22;69540;42.136;24.742;2023-06-26T01:41:19;29.10;39.70
80230;DHT22;69540;42.136;24.742;2023-06-26T01:49:24;29.10;39.70
80230;DHT22;69540;42.136;24.742;2023-06-26T01:52:21;29.10;39.80
80230;DHT22;69540;42.136;24.742;2023-06-26T01:55:32;29.10;39.70
80230;DHT22;69540;42.136;24.742;2023-06-26T01:58:01;29.10;39.70
80230;DHT22;69540;42.136;24.742;2023-06-26T02:00:27;29.00;39.70
80230;DHT22;69540;42.136;24.742;2023-06-26T02:02:54;29.00;39.70
80230;DHT22;69540;42.136;24.742;2023-06-26T02:05:20;29.00;39.70
80230;DHT22;69540;42.136;24.742;2023-06-26T02:07:46;29.00;39.70
80230;DHT22;69540;42.136;24.742;2023-06-26T02:10:11;29.10;39.80
80230;DHT22;69540;42.136;24.742;2023-06-26T02:12:37;29.10;39.80
80230;DHT22;69540;42.136;24.742;2023-06-26T02:15:04;29.10;39.80
80230;DHT22;69540;42.136;24.742;2023-06-26T02:17:30;29.00;39.70
80230;DHT22;69540;42.136;24.742;2023-06-26T02:19:55;29.00;39.70
80230;DHT22;69540;42.136;24.742;2023-06-26T02:22:21;29.10;39.80
80230;DHT22;69540;42.136;24.742;2023-06-26T02:24:47;29.10;39.80
80230;DHT22;69540;42.136;24.742;2023-06-26T02:27:12;29.10;39.80
80230;DHT22;69540;42.136;24.742;2023-06-26T02:29:39;29.10;39.80
80230;DHT22;69540;42.136;24.742;2023-06-26T02:32:05;29.10;39.80
80230;DHT22;69540;42.136;24.742;2023-06-26T02:34:31;29.00;39.70
80230;DHT22;69540;42.136;24.742;2023-06-26T02:36:57;29.10;39.80
80230;DHT22;69540;42.136;24.742;2023-06-26T02:39:24;29.10;39.80
80230;DHT22;69540;42.136;24.742;2023-06-26T02:41:49;29.10;39.80
80230;DHT22;69540;42.136;24.742;2023-06-26T02:44:15;29.10;39.80
80230;DHT22;69540;42.136;24.742;2023-06-26T02:46:41;29.10;39.80
80230;DHT22;69540;42.136;24.742;2023-06-26T02:49:06;29.10;39.80
80230;DHT22;69540;42.136;24.742;2023-06-26T02:51:33;29.10;39.80
80230;DHT22;69540;42.136;24.742;2023-06-26T02:53:59;29.00;39.70
80230;DHT22;69540;42.136;24.742;2023-06-26T02:56:26;29.10;39.80
80230;DHT22;69540;42.136;24.742;2023-06-26T02:58:55;29.10;39.80
80230;DHT22;69540;42.136;24.742;2023-06-26T03:01:21;29.00;39.70
80230;DHT22;69540;42.136;24.742;2023-06-26T03:03:47;29.10;39.80
80230;DHT22;69540;42.136;24.742;2023-06-26T03:06:13;29.00;39.70
80230;DHT22;69540;42.136;24.742;2023-06-26T03:08:40;29.00;39.80
80230;DHT22;69540;42.136;24.742;2023-06-26T03:11:06;29.10;39.90
80230;DHT22;69540;42.136;24.742;2023-06-26T03:13:34;29.00;39.80
80230;DHT22;69540;42.136;24.742;2023-06-26T03:15:59;29.00;39.80
80230;DHT22;69540;42.136;24.742;2023-06-26T03:18:26;29.10;39.80
80230;DHT22;69540;42.136;24.742;2023-06-26T03:20:52;29.10;39.80
80230;DHT22;69540;42.136;24.742;2023-06-26T03:23:20;29.10;39.80
80230;DHT22;69540;42.136;24.742;2023-06-26T03:25:46;29.00;39.70
80230;DHT22;69540;42.136;24.742;2023-06-26T03:28:11;29.10;39.80
80230;DHT22;69540;42.136;24.742;2023-06-26T03:30:37;29.00;39.70
80230;DHT22;69540;42.136;24.742;2023-06-26T03:33:03;29.10;39.80
80230;DHT22;69540;42.136;24.742;2023-06-26T03:35:28;29.10;39.80
80230;DHT22;69540;42.136;24.742;2023-06-26T03:37:54;29.00;39.80
80230;DHT22;69540;42.136;24.742;2023-06-26T03:40:20;29.10;39.80
80230;DHT22;69540;42.136;24.742;2023-06-26T03:42:45;29.10;39.80
80230;DHT22;69540;42.136;24.742;2023-06-26T03:45:11;29.00;39.80
80230;DHT22;69540;42.136;24.742;2023-06-26T03:47:37;29.10;39.80
80230;DHT22;69540;42.136;24.742;2023-06-26T03:50:03;29.10;39.80
80230;DHT22;69540;42.136;24.742;2023-06-26T03:52:29;29.10;39.90
80230;DHT22;69540;42.136;24.742;2023-06-26T03:54:57;29.10;39.80
80230;DHT22;69540;42.136;24.742;2023-06-26T03:57:22;29.10;39.80
80230;DHT22;69540;42.136;24.742;2023-06-26T03:59:48;29.00;39.80
80230;DHT22;69540;42.136;24.742;2023-06-26T04:02:14;29.00;39.70
80230;DHT22;69540;42.136;24.742;2023-06-26T04:04:40;29.10;39.80
80230;DHT22;69540;42.136;24.742;2023-06-26T04:07:05;29.00;39.80
80230;DHT22;69540;42.136;24.742;2023-06-26T04:09:31;29.10;39.80
80230;DHT22;69540;42.136;24.742;2023-06-26T04:11:56;29.10;39.80
80230;DHT22;69540;42.136;24.742;2023-06-26T04:14:22;29.00;39.80
80230;DHT22;69540;42.136;24.742;2023-06-26T04:16:48;29.00;39.80
80230;DHT22;69540;42.136;24.742;2023-06-26T04:19:13;29.00;39.80
80230;DHT22;69540;42.136;24.742;2023-06-26T04:21:39;29.20;40.60
80230;DHT22;69540;42.136;24.742;2023-06-26T04:24:05;29.10;40.50
80230;DHT22;69540;42.136;24.742;2023-06-26T04:26:31;29.10;40.50
80230;DHT22;69540;42.136;24.742;2023-06-26T04:28:56;28.90;40.40
80230;DHT22;69540;42.136;24.742;2023-06-26T04:31:22;28.90;40.40
80230;DHT22;69540;42.136;24.742;2023-06-26T04:33:48;28.90;40.70
80230;DHT22;69540;42.136;24.742;2023-06-26T04:36:16;28.90;40.70
80230;DHT22;69540;42.136;24.742;2023-06-26T04:38:42;28.90;41.40
80230;DHT22;69540;42.136;24.742;2023-06-26T04:41:08;28.90;41.70
80230;DHT22;69540;42.136;24.742;2023-06-26T04:43:33;28.80;42.10
80230;DHT22;69540;42.136;24.742;2023-06-26T04:45:59;28.70;42.30
80230;DHT22;69540;42.136;24.742;2023-06-26T04:48:25;28.60;42.60
80230;DHT22;69540;42.136;24.742;2023-06-26T04:50:55;28.60;42.80
80230;DHT22;69540;42.136;24.742;2023-06-26T04:53:22;28.60;43.10
80230;DHT22;69540;42.136;24.742;2023-06-26T04:55:49;28.50;43.00
80230;DHT22;69540;42.136;24.742;2023-06-26T04:58:15;28.50;42.80
80230;DHT22;69540;42.136;24.742;2023-06-26T05:00:41;28.50;43.00
80230;DHT22;69540;42.136;24.742;2023-06-26T05:03:12;28.40;43.20
80230;DHT22;69540;42.136;24.742;2023-06-26T05:05:38;28.40;43.50
80230;DHT22;69540;42.136;24.742;2023-06-26T05:08:33;28.40;43.80
80230;DHT22;69540;42.136;24.742;2023-06-26T05:10:59;28.30;43.40
80230;DHT22;69540;42.136;24.742;2023-06-26T05:13:25;28.30;43.60
80230;DHT22;69540;42.136;24.742;2023-06-26T05:15:52;28.20;43.60
80230;DHT22;69540;42.136;24.742;2023-06-26T05:18:17;28.10;43.90
80230;DHT22;69540;42.136;24.742;2023-06-26T05:20:43;28.20;44.10
80230;DHT22;69540;42.136;24.742;2023-06-26T05:23:11;28.20;44.00
80230;DHT22;69540;42.136;24.742;2023-06-26T05:25:37;28.20;44.00
80230;DHT22;69540;42.136;24.742;2023-06-26T05:28:04;28.20;44.00
80230;DHT22;69540;42.136;24.742;2023-06-26T05:30:36;28.20;43.80
80230;DHT22;69540;42.136;24.742;2023-06-26T05:33:02;28.20;43.60
80230;DHT22;69540;42.136;24.742;2023-06-26T05:35:29;28.20;43.40
80230;DHT22;69540;42.136;24.742;2023-06-26T05:37:56;28.20;43.40
80230;DHT22;69540;42.136;24.742;2023-06-26T05:40:22;28.10;43.30
80230;DHT22;69540;42.136;24.742;2023-06-26T05:42:48;28.20;43.30
80230;DHT22;69540;42.136;24.742;2023-06-26T05:45:15;28.20;43.10
80230;DHT22;69540;42.136;24.742;2023-06-26T05:47:41;28.20;44.20
80230;DHT22;69540;42.136;24.742;2023-06-26T05:50:08;28.20;43.10
80230;DHT22;69540;42.136;24.742;2023-06-26T05:52:34;28.10;43.00
80230;DHT22;69540;42.136;24.742;2023-06-26T05:55:01;28.20;43.20
80230;DHT22;69540;42.136;24.742;2023-06-26T05:57:29;28.20;43.20
80230;DHT22;69540;42.136;24.742;2023-06-26T05:59:55;28.20;43.20
80230;DHT22;69540;42.136;24.742;2023-06-26T06:02:21;28.10;43.30
80230;DHT22;69540;42.136;24.742;2023-06-26T06:04:47;28.10;43.30
80230;DHT22;69540;42.136;24.742;2023-06-26T06:07:12;28.10;43.20
80230;DHT22;69540;42.136;24.742;2023-06-26T06:09:38;28.10;43.20
80230;DHT22;69540;42.136;24.742;2023-06-26T06:12:05;28.10;43.10
80230;DHT22;69540;42.136;24.742;2023-06-26T06:14:31;28.20;43.20
80230;DHT22;69540;42.136;24.742;2023-06-26T06:16:57;28.20;43.10
80230;DHT22;69540;42.136;24.742;2023-06-26T06:19:23;28.20;43.10
80230;DHT22;69540;42.136;24.742;2023-06-26T06:21:48;28.30;43.20
80230;DHT22;69540;42.136;24.742;2023-06-26T06:24:14;28.30;43.30
80230;DHT22;69540;42.136;24.742;2023-06-26T06:26:40;28.40;44.00
80230;DHT22;69540;42.136;24.742;2023-06-26T06:29:07;28.40;43.20
80230;DHT22;69540;42.136;24.742;2023-06-26T06:31:32;28.40;43.10
80230;DHT22;69540;42.136;24.742;2023-06-26T06:33:58;28.40;43.00
80230;DHT22;69540;42.136;24.742;2023-06-26T06:36:24;28.50;43.00
80230;DHT22;69540;42.136;24.742;2023-06-26T06:38:49;28.50;43.00
80230;DHT22;69540;42.136;24.742;2023-06-26T06:41:15;28.50;42.90
80230;DHT22;69540;42.136;24.742;2023-06-26T06:43:41;28.50;42.80
80230;DHT22;69540;42.136;24.742;2023-06-26T06:46:08;28.60;43.10
80230;DHT22;69540;42.136;24.742;2023-06-26T06:48:34;28.60;42.90
80230;DHT22;69540;42.136;24.742;2023-06-26T06:51:00;28.60;43.00
80230;DHT22;69540;42.136;24.742;2023-06-26T06:53:26;28.60;43.10
80230;DHT22;69540;42.136;24.742;2023-06-26T06:55:51;28.60;42.90
80230;DHT22;69540;42.136;24.742;2023-06-26T06:58:17;28.70;42.90
80230;DHT22;69540;42.136;24.742;2023-06-26T07:00:45;28.70;42.80
80230;DHT22;69540;42.136;24.742;2023-06-26T07:03:11;28.70;42.60
80230;DHT22;69540;42.136;24.742;2023-06-26T07:05:37;28.70;42.50
80230;DHT22;69540;42.136;24.742;2023-06-26T07:08:03;28.70;42.40
80230;DHT22;69540;42.136;24.742;2023-06-26T07:10:29;28.70;42.20
80230;DHT22;69540;42.136;24.742;2023-06-26T07:12:55;28.70;42.10
80230;DHT22;69540;42.136;24.742;2023-06-26T07:15:20;28.80;42.10
80230;DHT22;69540;42.136;24.742;2023-06-26T07:17:46;28.80;42.10
80230;DHT22;69540;42.136;24.742;2023-06-26T07:20:11;28.80;42.10
80230;DHT22;69540;42.136;24.742;2023-06-26T07:22:41;28.80;42.30
80230;DHT22;69540;42.136;24.742;2023-06-26T07:25:07;28.90;42.20
80230;DHT22;69540;42.136;24.742;2023-06-26T07:27:35;28.90;42.00
80230;DHT22;69540;42.136;24.742;2023-06-26T07:30:01;28.90;42.00
80230;DHT22;69540;42.136;24.742;2023-06-26T07:32:27;28.90;41.80
80230;DHT22;69540;42.136;24.742;2023-06-26T07:34:52;28.80;41.60
80230;DHT22;69540;42.136;24.742;2023-06-26T07:37:19;28.90;41.80
80230;DHT22;69540;42.136;24.742;2023-06-26T07:39:45;28.90;41.70
80230;DHT22;69540;42.136;24.742;2023-06-26T07:42:10;28.90;41.60
80230;DHT22;69540;42.136;24.742;2023-06-26T07:44:36;29.00;41.70
80230;DHT22;69540;42.136;24.742;2023-06-26T07:47:02;28.90;41.50
80230;DHT22;69540;42.136;24.742;2023-06-26T07:49:29;28.90;41.40
80230;DHT22;69540;42.136;24.742;2023-06-26T07:51:54;29.00;41.40
80230;DHT22;69540;42.136;24.742;2023-06-26T07:54:20;29.00;41.20
80230;DHT22;69540;42.136;24.742;2023-06-26T07:57:12;29.00;41.10
80230;DHT22;69540;42.136;24.742;2023-06-26T07:59:38;29.00;41.00
80230;DHT22;69540;42.136;24.742;2023-06-26T08:02:04;29.00;40.90
80230;DHT22;69540;42.136;24.742;2023-06-26T08:04:30;29.00;41.00
80230;DHT22;69540;42.136;24.742;2023-06-26T08:06:59;29.00;40.70
80230;DHT22;69540;42.136;24.742;2023-06-26T08:09:29;29.00;40.50
80230;DHT22;69540;42.136;24.742;2023-06-26T08:11:55;29.10;40.50
80230;DHT22;69540;42.136;24.742;2023-06-26T08:14:21;29.00;40.40
80230;DHT22;69540;42.136;24.742;2023-06-26T08:16:47;29.00;40.10
80230;DHT22;69540;42.136;24.742;2023-06-26T08:19:14;29.00;40.10
80230;DHT22;69540;42.136;24.742;2023-06-26T08:21:41;29.10;40.00
80230;DHT22;69540;42.136;24.742;2023-06-26T08:24:07;29.10;39.80
80230;DHT22;69540;42.136;24.742;2023-06-26T08:26:34;29.10;39.80
80230;DHT22;69540;42.136;24.742;2023-06-26T08:28:59;29.10;39.80
80230;DHT22;69540;42.136;24.742;2023-06-26T08:31:25;29.10;40.00
80230;DHT22;69540;42.136;24.742;2023-06-26T08:33:51;29.10;40.10
80230;DHT22;69540;42.136;24.742;2023-06-26T08:36:16;29.10;40.50
80230;DHT22;69540;42.136;24.742;2023-06-26T08:38:42;29.10;40.50
80230;DHT22;69540;42.136;24.742;2023-06-26T08:41:08;29.10;40.60
80230;DHT22;69540;42.136;24.742;2023-06-26T08:43:34;29.10;40.90
80230;DHT22;69540;42.136;24.742;2023-06-26T08:46:00;29.10;41.00
80230;DHT22;69540;42.136;24.742;2023-06-26T08:48:28;29.10;41.20
80230;DHT22;69540;42.136;24.742;2023-06-26T08:50:55;29.10;41.20
80230;DHT22;69540;42.136;24.742;2023-06-26T08:53:50;29.10;41.20
80230;DHT22;69540;42.136;24.742;2023-06-26T08:56:18;29.10;41.30
80230;DHT22;69540;42.136;24.742;2023-06-26T08:58:46;29.10;41.40
80230;DHT22;69540;42.136;24.742;2023-06-26T09:01:13;29.10;41.40
80230;DHT22;69540;42.136;24.742;2023-06-26T09:03:38;29.20;41.70
80230;DHT22;69540;42.136;24.742;2023-06-26T09:06:04;29.10;41.70
80230;DHT22;69540;42.136;24.742;2023-06-26T09:08:30;29.20;41.80
80230;DHT22;69540;42.136;24.742;2023-06-26T09:10:55;29.20;41.90
80230;DHT22;69540;42.136;24.742;2023-06-26T09:13:21;29.20;41.90
80230;DHT22;69540;42.136;24.742;2023-06-26T09:15:47;29.20;42.10
80230;DHT22;69540;42.136;24.742;2023-06-26T09:18:13;29.20;42.20
80230;DHT22;69540;42.136;24.742;2023-06-26T09:20:42;29.20;42.20
80230;DHT22;69540;42.136;24.742;2023-06-26T09:23:08;29.20;42.30
80230;DHT22;69540;42.136;24.742;2023-06-26T09:25:38;29.30;42.40
80230;DHT22;69540;42.136;24.742;2023-06-26T09:28:05;29.30;42.50
80230;DHT22;69540;42.136;24.742;2023-06-26T09:30:32;29.20;42.40
80230;DHT22;69540;42.136;24.742;2023-06-26T09:33:11;29.30;42.50
80230;DHT22;69540;42.136;24.742;2023-06-26T09:35:38;29.30;42.60
80230;DHT22;69540;42.136;24.742;2023-06-26T09:38:03;29.30;42.70
80230;DHT22;69540;42.136;24.742;2023-06-26T09:40:29;29.20;42.70
80230;DHT22;69540;42.136;24.742;2023-06-26T09:43:03;29.30;42.90
80230;DHT22;69540;42.136;24.742;2023-06-26T09:45:28;29.30;42.80
80230;DHT22;69540;42.136;24.742;2023-06-26T09:48:05;29.30;42.80
80230;DHT22;69540;42.136;24.742;2023-06-26T09:50:33;29.30;42.70
80230;DHT22;69540;42.136;24.742;2023-06-26T09:53:07;29.20;42.70
80230;DHT22;69540;42.136;24.742;2023-06-26T09:55:37;29.30;43.10
80230;DHT22;69540;42.136;24.742;2023-06-26T09:58:03;29.20;43.20
80230;DHT22;69540;42.136;24.742;2023-06-26T10:00:32;29.20;42.00
80230;DHT22;69540;42.136;24.742;2023-06-26T10:03:01;29.20;40.60
80230;DHT22;69540;42.136;24.742;2023-06-26T10:05:27;29.10;39.60
80230;DHT22;69540;42.136;24.742;2023-06-26T10:07:56;29.10;39.00
80230;DHT22;69540;42.136;24.742;2023-06-26T10:10:23;29.10;38.20
80230;DHT22;69540;42.136;24.742;2023-06-26T10:12:53;28.90;37.60
80230;DHT22;69540;42.136;24.742;2023-06-26T10:15:20;28.90;37.20
80230;DHT22;69540;42.136;24.742;2023-06-26T10:17:49;28.90;36.70
80230;DHT22;69540;42.136;24.742;2023-06-26T10:20:15;28.80;36.10
80230;DHT22;69540;42.136;24.742;2023-06-26T10:22:44;28.80;35.70
80230;DHT22;69540;42.136;24.742;2023-06-26T10:25:12;28.80;35.30
80230;DHT22;69540;42.136;24.742;2023-06-26T10:27:43;28.70;35.00
80230;DHT22;69540;42.136;24.742;2023-06-26T10:30:18;28.70;34.60
80230;DHT22;69540;42.136;24.742;2023-06-26T10:32:46;28.60;35.40
80230;DHT22;69540;42.136;24.742;2023-06-26T10:35:12;28.60;34.20
80230;DHT22;69540;42.136;24.742;2023-06-26T10:37:49;28.60;34.30
80230;DHT22;69540;42.136;24.742;2023-06-26T10:40:28;28.50;34.30
80230;DHT22;69540;42.136;24.742;2023-06-26T10:43:07;28.50;34.40
80230;DHT22;69540;42.136;24.742;2023-06-26T10:45:38;28.50;34.40
80230;DHT22;69540;42.136;24.742;2023-06-26T10:48:07;28.40;34.40
80230;DHT22;69540;42.136;24.742;2023-06-26T10:50:33;28.40;34.60
80230;DHT22;69540;42.136;24.742;2023-06-26T10:55:37;28.30;34.60
80230;DHT22;69540;42.136;24.742;2023-06-26T10:58:03;28.30;34.60
80230;DHT22;69540;42.136;24.742;2023-06-26T11:00:29;28.20;34.70
80230;DHT22;69540;42.136;24.742;2023-06-26T11:02:54;28.20;34.70
80230;DHT22;69540;42.136;24.742;2023-06-26T11:05:24;28.20;34.70
80230;DHT22;69540;42.136;24.742;2023-06-26T11:08:08;28.20;34.80
80230;DHT22;69540;42.136;24.742;2023-06-26T11:10:53;28.10;34.80
80230;DHT22;69540;42.136;24.742;2023-06-26T11:13:20;28.10;35.10
80230;DHT22;69540;42.136;24.742;2023-06-26T11:15:49;28.10;35.20
80230;DHT22;69540;42.136;24.742;2023-06-26T11:18:16;28.10;35.20
80230;DHT22;69540;42.136;24.742;2023-06-26T11:20:41;28.10;35.60
80230;DHT22;69540;42.136;24.742;2023-06-26T11:23:09;28.10;35.40
80230;DHT22;69540;42.136;24.742;2023-06-26T11:25:36;28.00;35.20
80230;DHT22;69540;42.136;24.742;2023-06-26T11:28:03;28.00;35.10
80230;DHT22;69540;42.136;24.742;2023-06-26T11:30:30;28.00;35.10
80230;DHT22;69540;42.136;24.742;2023-06-26T11:33:06;28.00;35.10
80230;DHT22;69540;42.136;24.742;2023-06-26T11:35:32;28.00;35.10
80230;DHT22;69540;42.136;24.742;2023-06-26T11:37:59;28.00;35.20
80230;DHT22;69540;42.136;24.742;2023-06-26T11:40:27;28.00;35.10
80230;DHT22;69540;42.136;24.742;2023-06-26T11:42:56;28.00;35.10
80230;DHT22;69540;42.136;24.742;2023-06-26T11:45:22;27.90;35.00
80230;DHT22;69540;42.136;24.742;2023-06-26T11:47:49;27.90;35.00
80230;DHT22;69540;42.136;24.742;2023-06-26T11:50:17;27.90;35.00
80230;DHT22;69540;42.136;24.742;2023-06-26T11:52:44;27.90;35.10
80230;DHT22;69540;42.136;24.742;2023-06-26T11:55:10;27.90;35.00
80230;DHT22;69540;42.136;24.742;2023-06-26T11:57:36;27.90;35.00
80230;DHT22;69540;42.136;24.742;2023-06-26T12:00:15;27.90;34.90
80230;DHT22;69540;42.136;24.742;2023-06-26T12:02:46;27.90;34.90
80230;DHT22;69540;42.136;24.742;2023-06-26T12:05:13;27.90;35.00
80230;DHT22;69540;42.136;24.742;2023-06-26T12:07:41;27.80;35.10
80230;DHT22;69540;42.136;24.742;2023-06-26T12:10:07;27.80;35.30
80230;DHT22;69540;42.136;24.742;2023-06-26T12:12:33;27.80;35.60
80230;DHT22;69540;42.136;24.742;2023-06-26T12:14:59;27.80;35.60
80230;DHT22;69540;42.136;24.742;2023-06-26T12:17:26;27.80;35.70
80230;DHT22;69540;42.136;24.742;2023-06-26T12:19:52;27.80;36.00
80230;DHT22;69540;42.136;24.742;2023-06-26T12:22:18;27.80;35.90
80230;DHT22;69540;42.136;24.742;2023-06-26T12:24:45;27.80;35.80
80230;DHT22;69540;42.136;24.742;2023-06-26T12:27:16;27.80;35.90
80230;DHT22;69540;42.136;24.742;2023-06-26T12:29:53;27.80;35.90
80230;DHT22;69540;42.136;24.742;2023-06-26T12:32:20;27.80;36.30
80230;DHT22;69540;42.136;24.742;2023-06-26T12:34:49;27.80;36.30
80230;DHT22;69540;42.136;24.742;2023-06-26T12:37:15;27.80;36.20
80230;DHT22;69540;42.136;24.742;2023-06-26T12:39:53;27.80;36.20
80230;DHT22;69540;42.136;24.742;2023-06-26T12:42:23;27.80;36.20
80230;DHT22;69540;42.136;24.742;2023-06-26T12:44:50;27.80;36.20
80230;DHT22;69540;42.136;24.742;2023-06-26T12:47:16;27.80;36.10
80230;DHT22;69540;42.136;24.742;2023-06-26T12:49:44;27.80;36.10
80230;DHT22;69540;42.136;24.742;2023-06-26T12:52:14;27.80;36.30
80230;DHT22;69540;42.136;24.742;2023-06-26T12:54:42;27.80;36.10
80230;DHT22;69540;42.136;24.742;2023-06-26T12:57:08;27.80;36.10
80230;DHT22;69540;42.136;24.742;2023-06-26T12:59:36;27.80;36.10
80230;DHT22;69540;42.136;24.742;2023-06-26T13:02:02;27.80;36.00
80230;DHT22;69540;42.136;24.742;2023-06-26T13:04:29;27.80;36.00
80230;DHT22;69540;42.136;24.742;2023-06-26T13:06:55;27.70;35.90
80230;DHT22;69540;42.136;24.742;2023-06-26T13:09:21;27.80;35.90
80230;DHT22;69540;42.136;24.742;2023-06-26T13:11:47;27.70;35.90
80230;DHT22;69540;42.136;24.742;2023-06-26T13:14:13;27.80;35.90
80230;DHT22;69540;42.136;24.742;2023-06-26T13:16:39;27.80;35.90
80230;DHT22;69540;42.136;24.742;2023-06-26T13:19:05;27.70;35.80
80230;DHT22;69540;42.136;24.742;2023-06-26T13:21:31;27.70;36.00
80230;DHT22;69540;42.136;24.742;2023-06-26T13:23:57;27.70;35.80
80230;DHT22;69540;42.136;24.742;2023-06-26T13:26:23;27.70;35.60
80230;DHT22;69540;42.136;24.742;2023-06-26T13:28:50;27.70;35.40
80230;DHT22;69540;42.136;24.742;2023-06-26T13:31:16;27.70;35.40
80230;DHT22;69540;42.136;24.742;2023-06-26T13:33:42;27.70;35.20
80230;DHT22;69540;42.136;24.742;2023-06-26T13:36:08;27.70;34.80
80230;DHT22;69540;42.136;24.742;2023-06-26T13:38:33;27.70;34.40
80230;DHT22;69540;42.136;24.742;2023-06-26T13:40:59;27.70;34.30
80230;DHT22;69540;42.136;24.742;2023-06-26T13:43:29;27.70;34.00
80230;DHT22;69540;42.136;24.742;2023-06-26T13:45:55;27.70;33.80
80230;DHT22;69540;42.136;24.742;2023-06-26T13:48:21;27.70;33.50
80230;DHT22;69540;42.136;24.742;2023-06-26T13:50:48;27.70;33.40
80230;DHT22;69540;42.136;24.742;2023-06-26T13:53:13;27.70;33.30
80230;DHT22;69540;42.136;24.742;2023-06-26T13:55:40;27.70;33.20
80230;DHT22;69540;42.136;24.742;2023-06-26T13:58:06;27.70;33.10
80230;DHT22;69540;42.136;24.742;2023-06-26T14:00:35;27.70;32.80
80230;DHT22;69540;42.136;24.742;2023-06-26T14:03:03;27.70;32.70
80230;DHT22;69540;42.136;24.742;2023-06-26T14:05:30;27.60;32.40
80230;DHT22;69540;42.136;24.742;2023-06-26T14:07:55;27.60;32.40
80230;DHT22;69540;42.136;24.742;2023-06-26T14:10:22;27.60;32.30
80230;DHT22;69540;42.136;24.742;2023-06-26T14:12:47;27.60;32.10
80230;DHT22;69540;42.136;24.742;2023-06-26T14:15:13;27.60;32.00
80230;DHT22;69540;42.136;24.742;2023-06-26T14:17:39;27.50;31.90
80230;DHT22;69540;42.136;24.742;2023-06-26T14:20:09;27.50;31.70
80230;DHT22;69540;42.136;24.742;2023-06-26T14:22:39;27.50;31.70
80230;DHT22;69540;42.136;24.742;2023-06-26T14:25:08;27.50;31.50
80230;DHT22;69540;42.136;24.742;2023-06-26T14:27:34;27.50;31.60
80230;DHT22;69540;42.136;24.742;2023-06-26T14:30:00;27.50;31.60
80230;DHT22;69540;42.136;24.742;2023-06-26T14:32:26;27.50;31.40
80230;DHT22;69540;42.136;24.742;2023-06-26T14:34:51;27.50;31.30
80230;DHT22;69540;42.136;24.742;2023-06-26T14:37:17;27.50;31.70
80230;DHT22;69540;42.136;24.742;2023-06-26T14:39:44;27.50;31.80
80230;DHT22;69540;42.136;24.742;2023-06-26T14:42:10;27.50;31.90
80230;DHT22;69540;42.136;24.742;2023-06-26T14:44:35;27.60;32.10
80230;DHT22;69540;42.136;24.742;2023-06-26T14:47:01;27.60;32.30
80230;DHT22;69540;42.136;24.742;2023-06-26T14:49:27;27.70;32.50
80230;DHT22;69540;42.136;24.742;2023-06-26T14:51:52;27.70;32.50
80230;DHT22;69540;42.136;24.742;2023-06-26T14:54:18;27.80;32.70
80230;DHT22;69540;42.136;24.742;2023-06-26T14:56:44;27.90;33.00
80230;DHT22;69540;42.136;24.742;2023-06-26T14:59:11;27.90;33.00
80230;DHT22;69540;42.136;24.742;2023-06-26T15:01:38;27.90;33.50
80230;DHT22;69540;42.136;24.742;2023-06-26T15:04:04;28.00;33.90
80230;DHT22;69540;42.136;24.742;2023-06-26T15:06:30;28.00;34.00
80230;DHT22;69540;42.136;24.742;2023-06-26T15:08:56;28.10;34.20
80230;DHT22;69540;42.136;24.742;2023-06-26T15:11:21;28.10;34.40
80230;DHT22;69540;42.136;24.742;2023-06-26T15:13:47;28.10;34.40
80230;DHT22;69540;42.136;24.742;2023-06-26T15:16:13;28.20;34.60
80230;DHT22;69540;42.136;24.742;2023-06-26T15:18:39;28.20;34.80
80230;DHT22;69540;42.136;24.742;2023-06-26T15:21:05;28.20;34.90
80230;DHT22;69540;42.136;24.742;2023-06-26T15:23:31;28.20;35.00
80230;DHT22;69540;42.136;24.742;2023-06-26T15:25:56;28.20;34.90